Terminal Aerodrome Forecast
Issued by NWS

Current Version | Previous Version | Graphics & Text | Print | Product List | Glossary On
Versions: 1 2 3 4 5 6 7 8 9 10 11 12 13 14 15 16 17 18 19 20 21 22 23 24 25 26 27 28 29
000
FTUS41 KRLX 261400 AAA
TAFCKB
TAF AMD
KCKB 261408Z 2614/2712 00000KT 1 1/2SM -RA BR OVC021
     FM261600 VRB03KT 5SM -SN OVC015
     FM262000 27005KT 3SM -SN OVC010
     FM262100 27006KT 1SM -SN OVC005
     FM270000 29006KT 3SM -SN OVC010
     FM270600 29006KT 3SM -SN OVC015=

USA.gov is the U.S. government's official web portal to all federal, state and local government web resources and services.